createdAt,value
2018-05-13T00:00:26.215Z,15.87
2018-05-13T00:01:26.508Z,15.86
2018-05-13T00:02:41.194Z,15.83
2018-05-13T00:03:26.548Z,15.9
2018-05-13T00:04:26.592Z,15.83
2018-05-13T00:05:26.828Z,15.84
2018-05-13T00:06:26.614Z,15.89
2018-05-13T00:07:26.661Z,15.96
2018-05-13T00:08:26.657Z,15.86
2018-05-13T00:09:26.449Z,15.84
2018-05-13T00:10:41.362Z,15.86
2018-05-13T00:11:26.756Z,15.86
2018-05-13T00:12:26.778Z,15.87
2018-05-13T00:13:26.788Z,15.82
2018-05-13T00:14:26.546Z,15.9
2018-05-13T00:15:26.576Z,15.83
2018-05-13T00:16:26.583Z,15.82
2018-05-13T00:17:26.899Z,15.83
2018-05-13T00:18:26.628Z,15.83
2018-05-13T00:19:26.930Z,15.86
2018-05-13T00:20:26.932Z,15.87
2018-05-13T00:22:27.010Z,15.86
2018-05-13T00:23:27.010Z,15.71
2018-05-13T00:24:26.515Z,15.83
2018-05-13T00:25:27.058Z,15.65
2018-05-13T00:26:26.839Z,15.71
2018-05-13T00:27:27.092Z,15.68
2018-05-13T00:28:27.147Z,15.71
2018-05-13T00:29:41.814Z,15.72
2018-05-13T00:30:27.187Z,15.65
2018-05-13T00:31:27.196Z,15.69
2018-05-13T00:32:27.209Z,15.74
2018-05-13T00:33:27.260Z,15.75
2018-05-13T00:34:41.919Z,15.68
2018-05-13T00:35:27.328Z,15.75
2018-05-13T00:36:27.303Z,15.67
2018-05-13T00:37:42.013Z,15.71
2018-05-13T00:39:27.115Z,15.69
2018-05-13T00:40:27.422Z,15.67
2018-05-13T00:41:27.439Z,15.71
2018-05-13T00:43:27.245Z,15.75
2018-05-13T00:44:42.145Z,15.72
2018-05-13T00:45:27.540Z,15.71
2018-05-13T00:46:27.298Z,15.71
2018-05-13T00:48:27.605Z,15.67
2018-05-13T00:49:27.342Z,15.67
2018-05-13T00:50:42.474Z,15.69
2018-05-13T00:51:27.648Z,15.59
2018-05-13T00:52:27.700Z,15.6
2018-05-13T00:53:27.719Z,15.56
2018-05-13T00:54:27.810Z,15.57
2018-05-13T00:55:27.839Z,15.6
2018-05-13T00:56:27.760Z,15.71
2018-05-13T00:57:27.820Z,15.67
2018-05-13T00:58:27.827Z,15.62
2018-05-13T00:59:27.654Z,15.57
2018-05-13T01:00:27.854Z,15.62
2018-05-13T01:01:42.554Z,15.53
2018-05-13T01:02:27.905Z,15.54
2018-05-13T01:03:27.924Z,15.57
2018-05-13T01:04:28.014Z,15.53
2018-05-13T01:05:28.003Z,15.53
2018-05-13T01:06:42.667Z,15.51
2018-05-13T01:07:28.020Z,15.57
2018-05-13T01:08:27.800Z,15.56
2018-05-13T01:09:28.092Z,15.56
2018-05-13T01:10:28.086Z,15.54
2018-05-13T01:11:27.878Z,15.47
2018-05-13T01:12:28.129Z,15.53
2018-05-13T01:13:27.904Z,15.56
2018-05-13T01:14:27.924Z,15.65
2018-05-13T01:15:42.877Z,15.57
2018-05-13T01:16:28.250Z,15.56
2018-05-13T01:17:27.990Z,15.49
2018-05-13T01:18:28.278Z,15.54
2018-05-13T01:19:28.029Z,15.56
2018-05-13T01:20:28.343Z,15.59
2018-05-13T01:21:28.337Z,15.56
2018-05-13T01:23:28.417Z,15.53
2018-05-13T01:24:28.421Z,15.53
2018-05-13T01:25:28.431Z,15.47
2018-05-13T01:26:28.447Z,15.51
2018-05-13T01:27:28.503Z,15.53
2018-05-13T01:28:28.251Z,15.56
2018-05-13T01:29:28.555Z,15.51
2018-05-13T01:30:28.545Z,15.56
2018-05-13T01:31:28.588Z,15.46
2018-05-13T01:32:28.584Z,15.51
2018-05-13T01:33:28.629Z,15.46
2018-05-13T01:34:28.114Z,15.41
2018-05-13T01:36:28.424Z,15.5
2018-05-13T01:37:43.380Z,15.43
2018-05-13T01:38:28.734Z,15.46
2018-05-13T01:39:43.161Z,15.44
2018-05-13T01:41:28.805Z,15.43
2018-05-13T01:42:28.828Z,15.49
2018-05-13T01:43:28.848Z,15.44
2018-05-13T01:44:28.629Z,15.47
2018-05-13T01:45:43.544Z,15.47
2018-05-13T01:46:28.946Z,15.41
2018-05-13T01:47:28.955Z,15.47
2018-05-13T01:48:28.970Z,15.46
2018-05-13T01:49:28.734Z,15.38
2018-05-13T01:50:29.028Z,15.44
2018-05-13T01:51:29.041Z,15.46
2018-05-13T01:52:29.074Z,15.44
2018-05-13T01:54:28.585Z,15.44
2018-05-13T01:55:28.851Z,15.49
2018-05-13T01:56:29.168Z,15.46
2018-05-13T01:57:29.183Z,15.34
2018-05-13T01:58:29.196Z,15.44
2018-05-13T01:59:29.203Z,15.49
2018-05-13T02:00:29.226Z,15.35
2018-05-13T02:01:29.281Z,15.32
2018-05-13T02:02:29.298Z,15.34
2018-05-13T02:03:29.301Z,15.29
2018-05-13T02:04:29.085Z,15.32
2018-05-13T02:05:29.348Z,15.35
2018-05-13T02:06:29.399Z,15.34
2018-05-13T02:07:29.391Z,15.29
2018-05-13T02:08:29.438Z,15.29
2018-05-13T02:09:44.090Z,15.27
2018-05-13T02:10:29.454Z,15.29
2018-05-13T02:11:43.891Z,15.31
2018-05-13T02:12:29.243Z,15.31
2018-05-13T02:13:29.550Z,15.31
2018-05-13T02:14:29.577Z,15.25
2018-05-13T02:15:29.414Z,15.27
2018-05-13T02:16:29.593Z,15.28
2018-05-13T02:17:29.620Z,15.27
2018-05-13T02:18:29.661Z,15.29
2018-05-13T02:19:29.698Z,15.23
2018-05-13T02:20:44.359Z,15.27
2018-05-13T02:21:29.713Z,15.17
2018-05-13T02:22:29.755Z,15.19
2018-05-13T02:23:29.749Z,15.29
2018-05-13T02:24:29.542Z,15.29
2018-05-13T02:25:44.458Z,15.28
2018-05-13T02:26:29.852Z,15.29
2018-05-13T02:27:29.876Z,15.27
2018-05-13T02:28:29.868Z,15.23
2018-05-13T02:29:29.900Z,15.27
2018-05-13T02:30:29.926Z,15.27
2018-05-13T02:31:29.686Z,15.19
2018-05-13T02:32:29.998Z,15.25
2018-05-13T02:33:44.638Z,15.27
2018-05-13T02:34:30.026Z,15.17
2018-05-13T02:35:29.525Z,15.23
2018-05-13T02:36:30.098Z,15.28
2018-05-13T02:37:30.117Z,15.31
2018-05-13T02:39:29.885Z,15.19
2018-05-13T02:40:30.137Z,15.27
2018-05-13T02:41:44.841Z,15.27
2018-05-13T02:43:30.255Z,15.28
2018-05-13T02:44:30.262Z,15.25
2018-05-13T02:45:30.260Z,15.27
2018-05-13T02:46:30.470Z,15.17
2018-05-13T02:47:30.300Z,15.21
2018-05-13T02:48:30.351Z,15.27
2018-05-13T02:49:30.087Z,15.29
2018-05-13T02:50:30.396Z,15.28
2018-05-13T02:51:30.132Z,15.19
2018-05-13T02:52:45.086Z,15.25
2018-05-13T02:53:29.926Z,15.21
2018-05-13T02:54:30.197Z,15.25
2018-05-13T02:55:30.504Z,15.28
2018-05-13T02:56:30.521Z,15.21
2018-05-13T02:57:45.205Z,15.21
2018-05-13T02:59:44.991Z,15.31
2018-05-13T03:00:30.612Z,15.29
2018-05-13T03:01:30.392Z,15.27
2018-05-13T03:02:30.383Z,15.25
2018-05-13T03:03:30.699Z,15.17
2018-05-13T03:04:30.430Z,15.2
2018-05-13T03:05:30.742Z,15.28
2018-05-13T03:06:30.519Z,15.23
2018-05-13T03:07:30.522Z,15.2
2018-05-13T03:08:30.808Z,15.25
2018-05-13T03:09:30.281Z,15.21
2018-05-13T03:10:30.831Z,15.25
2018-05-13T03:11:30.598Z,15.23
2018-05-13T03:12:45.541Z,15.27
2018-05-13T03:13:30.894Z,15.28
2018-05-13T03:14:45.323Z,15.31
2018-05-13T03:15:30.960Z,15.21
2018-05-13T03:16:30.979Z,15.2
2018-05-13T03:17:30.976Z,15.27
2018-05-13T03:18:31.001Z,15.27
2018-05-13T03:19:30.794Z,15.21
2018-05-13T03:20:31.059Z,15.25
2018-05-13T03:21:31.111Z,15.27
2018-05-13T03:22:31.090Z,15.29
2018-05-13T03:23:31.149Z,15.28
2018-05-13T03:24:31.213Z,15.21
2018-05-13T03:25:31.186Z,15.25
2018-05-13T03:26:31.198Z,15.28
2018-05-13T03:27:31.214Z,15.14
2018-05-13T03:28:31.231Z,15.28
2018-05-13T03:29:31.018Z,15.25
2018-05-13T03:30:31.278Z,15.28
2018-05-13T03:31:31.346Z,15.17
2018-05-13T03:32:31.333Z,15.23
2018-05-13T03:33:31.471Z,15.27
2018-05-13T03:34:31.106Z,15.29
2018-05-13T03:35:31.390Z,15.27
2018-05-13T03:36:31.162Z,15.29
2018-05-13T03:37:31.201Z,15.25
2018-05-13T03:38:45.856Z,15.32
2018-05-13T03:39:31.253Z,15.27
2018-05-13T03:40:31.499Z,15.31
2018-05-13T03:41:31.551Z,15.35
2018-05-13T03:42:31.557Z,15.38
2018-05-13T03:43:31.602Z,15.39
2018-05-13T03:44:45.992Z,15.36
2018-05-13T03:45:31.622Z,15.39
2018-05-13T03:46:31.665Z,15.43
2018-05-13T03:47:31.685Z,15.46
2018-05-13T03:49:31.705Z,15.43
2018-05-13T03:50:31.758Z,15.49
2018-05-13T03:51:31.755Z,15.46
2018-05-13T03:52:31.802Z,15.5
2018-05-13T03:53:31.821Z,15.46
2018-05-13T03:54:31.559Z,15.51
2018-05-13T03:55:31.842Z,15.53
2018-05-13T03:57:31.635Z,15.53
2018-05-13T03:58:31.938Z,15.57
2018-05-13T03:59:31.931Z,15.59
2018-05-13T04:00:46.633Z,15.67
2018-05-13T04:01:31.981Z,15.68
2018-05-13T04:02:32.005Z,15.74
2018-05-13T04:03:32.076Z,15.72
2018-05-13T04:04:32.084Z,15.64
2018-05-13T04:05:32.102Z,15.76
2018-05-13T04:06:31.837Z,15.71
2018-05-13T04:07:32.362Z,15.74
2018-05-13T04:08:31.916Z,15.75
2018-05-13T04:09:31.937Z,15.86
2018-05-13T04:10:32.188Z,15.84
2018-05-13T04:11:31.975Z,15.9
2018-05-13T04:12:32.256Z,15.87
2018-05-13T04:13:32.269Z,15.87
2018-05-13T04:14:32.279Z,15.87
2018-05-13T04:15:32.047Z,15.92
2018-05-13T04:16:46.998Z,16.01
2018-05-13T04:17:32.359Z,16.11
2018-05-13T04:18:31.858Z,16.09
2018-05-13T04:19:32.411Z,16.09
2018-05-13T04:20:47.081Z,16.11
2018-05-13T04:21:32.469Z,16.15
2018-05-13T04:22:32.498Z,16.17
2018-05-13T04:23:47.144Z,16.23
2018-05-13T04:24:32.278Z,16.24
2018-05-13T04:25:32.539Z,16.31
2018-05-13T04:26:32.560Z,16.27
2018-05-13T04:28:32.624Z,16.3
2018-05-13T04:29:32.653Z,16.45
2018-05-13T04:30:32.649Z,16.34
2018-05-13T04:32:47.093Z,16.28
2018-05-13T04:33:32.461Z,16.43
2018-05-13T04:34:32.764Z,16.45
2018-05-13T04:35:32.520Z,16.46
2018-05-13T04:36:32.894Z,16.5
2018-05-13T04:37:32.808Z,16.56
2018-05-13T04:38:32.869Z,16.63
2018-05-13T04:39:32.854Z,16.68
2018-05-13T04:40:47.543Z,16.67
2018-05-13T04:41:32.915Z,16.76
2018-05-13T04:42:32.957Z,16.81
2018-05-13T04:44:32.977Z,16.97
2018-05-13T04:45:33.025Z,17.15
2018-05-13T04:46:33.029Z,17.58
2018-05-13T04:47:47.717Z,18.36
2018-05-13T04:49:33.103Z,19.37
2018-05-13T04:50:33.116Z,19.95
2018-05-13T04:51:33.170Z,20.21
2018-05-13T04:52:33.170Z,20.43
2018-05-13T04:53:33.219Z,20.94
2018-05-13T04:54:33.212Z,21.27
2018-05-13T04:55:33.006Z,21.47
2018-05-13T04:56:33.262Z,21.58
2018-05-13T04:57:33.306Z,21.54
2018-05-13T04:59:33.359Z,22.4
2018-05-13T05:00:33.399Z,22.55
2018-05-13T05:02:33.450Z,23.02
2018-05-13T05:03:33.445Z,23.36
2018-05-13T05:04:33.492Z,23.6
2018-05-13T05:05:33.239Z,23.97
2018-05-13T05:06:33.560Z,24.27
2018-05-13T05:07:33.318Z,24.43
2018-05-13T05:08:33.598Z,24.87
2018-05-13T05:09:33.609Z,24.91
2018-05-13T05:10:33.638Z,24.58
2018-05-13T05:11:33.428Z,24.93
2018-05-13T05:12:33.448Z,25.2
2018-05-13T05:13:48.124Z,25.2
2018-05-13T05:14:33.788Z,24.96
2018-05-13T05:15:33.777Z,25.17
2018-05-13T05:16:33.844Z,25.21
2018-05-13T05:17:33.848Z,25.08
2018-05-13T05:18:33.899Z,25.15
2018-05-13T05:19:48.556Z,25.23
2018-05-13T05:20:33.933Z,25.45
2018-05-13T05:21:33.718Z,25.73
2018-05-13T05:22:34.002Z,25.92
2018-05-13T05:23:34.044Z,26.18
2018-05-13T05:24:34.050Z,26.29
2018-05-13T05:25:34.107Z,26.4
2018-05-13T05:26:34.106Z,26.67
2018-05-13T05:27:48.824Z,26.57
2018-05-13T05:28:34.167Z,26.81
2018-05-13T05:29:34.227Z,26.58
2018-05-13T05:30:48.904Z,26.65
2018-05-13T05:31:34.002Z,26.54
2018-05-13T05:32:34.318Z,26.3
2018-05-13T05:33:34.318Z,26.45
2018-05-13T05:34:34.384Z,26.48
2018-05-13T05:35:49.150Z,27.09
2018-05-13T05:36:34.181Z,27.24
2018-05-13T05:37:34.476Z,27.5
2018-05-13T05:38:49.146Z,27.85
2018-05-13T05:39:34.538Z,27.97
2018-05-13T05:40:34.542Z,28.22
2018-05-13T05:41:34.334Z,28.44
2018-05-13T05:42:34.360Z,28.83
2018-05-13T05:43:49.295Z,28.76
2018-05-13T05:44:34.664Z,28.76
2018-05-13T05:45:34.736Z,28.7
2018-05-13T05:46:34.734Z,29.06
2018-05-13T05:47:34.800Z,28.9
2018-05-13T05:48:34.736Z,28.77
2018-05-13T05:49:34.578Z,28.51
2018-05-13T05:50:34.876Z,28.68
2018-05-13T05:51:49.555Z,29.06
2018-05-13T05:52:34.961Z,28.98
2018-05-13T05:53:34.963Z,28.7
2018-05-13T05:54:35.025Z,29.02
2018-05-13T05:55:35.057Z,29.34
2018-05-13T05:56:34.804Z,29.73
2018-05-13T05:57:35.111Z,29.92
2018-05-13T05:58:35.134Z,29.49
2018-05-13T05:59:34.926Z,28.83
2018-05-13T06:00:34.942Z,28.07
2018-05-13T06:01:34.993Z,28.18
2018-05-13T06:02:35.285Z,28.29
2018-05-13T06:03:35.331Z,28.71
2018-05-13T06:04:35.327Z,29.08
2018-05-13T06:05:35.374Z,29.15
2018-05-13T06:06:35.148Z,29.49
2018-05-13T06:07:50.108Z,29.34
2018-05-13T06:08:35.471Z,29
2018-05-13T06:09:35.525Z,28.62
2018-05-13T06:10:35.532Z,28.83
2018-05-13T06:11:35.594Z,28.7
2018-05-13T06:12:35.595Z,28.9
2018-05-13T06:13:35.661Z,29.16
2018-05-13T06:14:35.667Z,29.45
2018-05-13T06:15:50.370Z,28.95
2018-05-13T06:16:35.497Z,29.02
2018-05-13T06:17:35.796Z,29.21
2018-05-13T06:20:35.899Z,28.88
2018-05-13T06:21:35.905Z,28.74
2018-05-13T06:22:50.610Z,28.98
2018-05-13T06:23:35.733Z,29.12
2018-05-13T06:25:36.071Z,29.31
2018-05-13T06:26:36.094Z,29.3
2018-05-13T06:27:36.142Z,29.11
2018-05-13T06:28:35.888Z,29.31
2018-05-13T06:29:50.841Z,29.41
2018-05-13T06:30:35.977Z,29.33
2018-05-13T06:31:36.005Z,29.45
2018-05-13T06:32:36.321Z,28.83
2018-05-13T06:33:36.318Z,28.36
2018-05-13T06:35:36.396Z,29.15
2018-05-13T06:36:36.433Z,29.39
2018-05-13T06:37:36.228Z,29.18
2018-05-13T06:38:36.234Z,28.89
2018-05-13T06:39:51.194Z,28.77
2018-05-13T06:40:36.591Z,28.59
2018-05-13T06:41:36.600Z,28.55
2018-05-13T06:42:36.658Z,28.92
2018-05-13T06:43:36.687Z,29.09
2018-05-13T06:44:36.466Z,28.89
2018-05-13T06:45:36.475Z,28.7
2018-05-13T06:46:36.775Z,29.02
2018-05-13T06:47:36.565Z,29.05
2018-05-13T06:48:36.871Z,29.26
2018-05-13T06:49:36.384Z,29.45
2018-05-13T06:50:36.911Z,29.55
2018-05-13T06:51:36.872Z,29.42
2018-05-13T06:52:36.977Z,29.36
2018-05-13T06:53:36.779Z,29.36
2018-05-13T06:55:37.114Z,29.28
2018-05-13T06:56:36.883Z,29.71
2018-05-13T06:57:36.913Z,30
2018-05-13T06:59:37.230Z,29.94
2018-05-13T07:00:37.296Z,30.02
2018-05-13T07:01:51.957Z,29.97
2018-05-13T07:02:37.100Z,30.08
2018-05-13T07:03:37.119Z,30.29
2018-05-13T07:04:37.412Z,30.54
2018-05-13T07:05:37.194Z,30.34
2018-05-13T07:06:37.502Z,30.42
2018-05-13T07:07:37.506Z,30.75
2018-05-13T07:08:37.313Z,30.94
2018-05-13T07:09:37.574Z,31.28
2018-05-13T07:10:52.280Z,31.01
2018-05-13T07:11:37.671Z,31.41
2018-05-13T07:12:37.713Z,31.53
2018-05-13T07:13:37.489Z,32.03
2018-05-13T07:14:37.506Z,31.93
2018-05-13T07:15:37.816Z,31.54
2018-05-13T07:16:38.018Z,31.32
2018-05-13T07:18:37.393Z,31.04
2018-05-13T07:19:37.675Z,30.79
2018-05-13T07:20:37.970Z,30.91
2018-05-13T07:21:52.692Z,31.06
2018-05-13T07:22:38.049Z,30.95
2018-05-13T07:23:37.849Z,31.09
2018-05-13T07:24:38.135Z,31.46
2018-05-13T07:25:37.920Z,31.75
2018-05-13T07:27:37.960Z,30.91
2018-05-13T07:28:38.296Z,30.79
2018-05-13T07:29:38.299Z,30.86
2018-05-13T07:30:38.083Z,30.97
2018-05-13T07:31:38.398Z,31.39
2018-05-13T07:32:38.141Z,31.25
2018-05-13T07:33:37.941Z,31.09
2018-05-13T07:34:38.483Z,31.48
2018-05-13T07:35:53.174Z,31.76
2018-05-13T07:36:38.404Z,32.38
2018-05-13T07:38:38.649Z,32.52
2018-05-13T07:40:38.720Z,32.62
2018-05-13T07:41:38.761Z,32.79
2018-05-13T07:42:53.169Z,32.81
2018-05-13T07:43:38.815Z,32.74
2018-05-13T07:44:38.577Z,32.96
2018-05-13T07:45:38.901Z,32.92
2018-05-13T07:46:38.910Z,32.87
2018-05-13T07:47:38.971Z,33.01
2018-05-13T07:48:53.659Z,32.74
2018-05-13T07:49:53.682Z,32.48
2018-05-13T07:50:39.072Z,32.43
2018-05-13T07:51:39.088Z,32.22
2018-05-13T07:52:53.805Z,32
2018-05-13T07:53:38.906Z,32.19
2018-05-13T07:54:39.228Z,32.48
2018-05-13T07:55:39.246Z,32.72
2018-05-13T07:56:39.037Z,32.52
2018-05-13T07:58:39.110Z,32.37
2018-05-13T07:59:39.380Z,32.44
2018-05-13T08:01:39.452Z,32.51
2018-05-13T08:02:39.490Z,32.25
2018-05-13T08:03:39.295Z,32.11
2018-05-13T08:04:39.566Z,32.13
2018-05-13T08:05:39.633Z,32
2018-05-13T08:06:39.377Z,31.56
2018-05-13T08:08:39.711Z,31.25
2018-05-13T08:09:39.739Z,31.46
2018-05-13T08:10:39.805Z,31.78
2018-05-13T08:11:39.570Z,32.22
2018-05-13T08:12:39.615Z,32.21
2018-05-13T08:13:39.890Z,31.73
2018-05-13T08:14:39.685Z,31.58
2018-05-13T08:15:39.704Z,31.56
2018-05-13T08:16:40.023Z,31.17
2018-05-13T08:17:40.030Z,30.95
2018-05-13T08:18:40.098Z,30.27
2018-05-13T08:19:40.111Z,30.61
2018-05-13T08:20:40.318Z,30.83
2018-05-13T08:21:39.910Z,31.25
2018-05-13T08:22:39.955Z,31.31
2018-05-13T08:23:54.922Z,31.72
2018-05-13T08:24:40.036Z,32.11
2018-05-13T08:25:40.320Z,32.44
2018-05-13T08:26:40.387Z,32.7
2018-05-13T08:28:40.457Z,32.44
2018-05-13T08:29:55.132Z,32.5
2018-05-13T08:30:40.232Z,32.47
2018-05-13T08:31:40.541Z,32.56
2018-05-13T08:32:40.563Z,32.59
2018-05-13T08:33:40.362Z,32.45
2018-05-13T08:34:40.654Z,32.29
2018-05-13T08:35:40.699Z,32.23
2018-05-13T08:36:40.701Z,32.18
2018-05-13T08:37:40.767Z,32.3
2018-05-13T08:38:40.775Z,32.57
2018-05-13T08:39:40.401Z,32.85
2018-05-13T08:40:40.839Z,32.78
2018-05-13T08:41:40.909Z,32.62
2018-05-13T08:42:40.941Z,32.26
2018-05-13T08:43:40.964Z,32.11
2018-05-13T08:44:40.731Z,32.25
2018-05-13T08:45:55.680Z,32.14
2018-05-13T08:46:41.091Z,32.04
2018-05-13T08:47:41.091Z,32.18
2018-05-13T08:48:41.473Z,32.26
2018-05-13T08:49:41.188Z,32.52
2018-05-13T08:50:41.217Z,32.51
2018-05-13T08:51:41.229Z,32.5
2018-05-13T08:52:41.308Z,32.96
2018-05-13T08:53:41.306Z,33.35
2018-05-13T08:54:41.358Z,33.47
2018-05-13T08:55:41.456Z,33.72
2018-05-13T08:56:56.084Z,33.87
2018-05-13T08:57:41.454Z,33.59
2018-05-13T08:58:41.511Z,33.37
2018-05-13T08:59:41.741Z,33.44
2018-05-13T09:00:41.553Z,33.34
2018-05-13T09:01:56.252Z,32.84
2018-05-13T09:02:41.613Z,32.66
2018-05-13T09:03:41.470Z,32.65
2018-05-13T09:04:41.685Z,32.32
2018-05-13T09:05:41.487Z,32.37
2018-05-13T09:06:56.422Z,32.63
2018-05-13T09:07:41.806Z,32.38
2018-05-13T09:08:41.856Z,32.29
2018-05-13T09:09:41.625Z,32.22
2018-05-13T09:10:41.996Z,32.26
2018-05-13T09:11:41.691Z,31.75
2018-05-13T09:12:41.700Z,31.7
2018-05-13T09:13:42.033Z,31.43
2018-05-13T09:14:41.772Z,31.63
2018-05-13T09:15:42.096Z,31.62
2018-05-13T09:16:42.123Z,31.88
2018-05-13T09:17:56.819Z,31.99
2018-05-13T09:18:42.172Z,31.47
2018-05-13T09:19:42.232Z,31.04
2018-05-13T09:20:42.564Z,31.1
2018-05-13T09:21:42.031Z,31.25
2018-05-13T09:22:42.302Z,31.32
2018-05-13T09:23:42.368Z,31.88
2018-05-13T09:24:42.374Z,32.4
2018-05-13T09:25:42.440Z,32.28
2018-05-13T09:26:42.862Z,32.7
2018-05-13T09:27:57.161Z,32.29
2018-05-13T09:28:42.557Z,32.29
2018-05-13T09:29:42.654Z,32.07
2018-05-13T09:30:42.327Z,31.93
2018-05-13T09:31:42.631Z,31.88
2018-05-13T09:32:57.389Z,32.14
2018-05-13T09:33:42.678Z,32.25
2018-05-13T09:34:42.741Z,31.92
2018-05-13T09:35:42.488Z,31.91
2018-05-13T09:36:42.796Z,32.22
2018-05-13T09:37:42.814Z,32.03
2018-05-13T09:39:42.922Z,32.1
2018-05-13T09:40:42.924Z,32.33
2018-05-13T09:41:42.965Z,32.26
2018-05-13T09:42:42.721Z,32.6
2018-05-13T09:43:43.051Z,32.23
2018-05-13T09:44:43.051Z,31.72
2018-05-13T09:45:43.098Z,31.62
2018-05-13T09:46:42.874Z,31.78
2018-05-13T09:47:43.150Z,31.92
2018-05-13T09:48:43.216Z,32.1
2018-05-13T09:49:43.257Z,31.93
2018-05-13T09:51:43.302Z,32.38
2018-05-13T09:52:43.320Z,32.15
2018-05-13T09:53:43.376Z,31.89
2018-05-13T09:54:43.391Z,31.7
2018-05-13T09:55:43.185Z,31.93
2018-05-13T09:57:43.731Z,32.1
2018-05-13T09:58:43.254Z,31.95
2018-05-13T09:59:43.293Z,31.92
2018-05-13T10:00:43.335Z,31.75
2018-05-13T10:01:43.385Z,31.66
2018-05-13T10:02:43.799Z,31.89
2018-05-13T10:03:43.427Z,31.76
2018-05-13T10:04:58.391Z,31.32
2018-05-13T10:05:43.744Z,31.29
2018-05-13T10:06:43.795Z,30.94
2018-05-13T10:07:43.808Z,30.82
2018-05-13T10:08:43.880Z,31.07
2018-05-13T10:09:44.003Z,31.23
2018-05-13T10:10:43.914Z,31.57
2018-05-13T10:11:43.966Z,31.47
2018-05-13T10:12:58.638Z,31.66
2018-05-13T10:13:44.022Z,31.96
2018-05-13T10:15:43.816Z,32.19
2018-05-13T10:16:44.102Z,32.63
2018-05-13T10:17:44.163Z,32.82
2018-05-13T10:18:44.181Z,32.67
2018-05-13T10:21:44.283Z,32
2018-05-13T10:22:44.294Z,31.75
2018-05-13T10:23:44.334Z,31.73
2018-05-13T10:24:44.383Z,31.44
2018-05-13T10:25:44.408Z,31.07
2018-05-13T10:26:44.191Z,30.76
2018-05-13T10:27:44.454Z,30.31
2018-05-13T10:29:44.521Z,29.71
2018-05-13T10:30:44.296Z,29.53
2018-05-13T10:31:44.334Z,29.55
2018-05-13T10:32:44.651Z,29.58
2018-05-13T10:33:44.682Z,29.58
2018-05-13T10:34:44.683Z,29.46
2018-05-13T10:35:44.477Z,29.31
2018-05-13T10:36:59.405Z,29.15
2018-05-13T10:37:44.811Z,29.21
2018-05-13T10:38:44.807Z,29.28
2018-05-13T10:39:44.872Z,29.18
2018-05-13T10:40:44.887Z,29.21
2018-05-13T10:42:44.953Z,29.39
2018-05-13T10:43:45.003Z,29.37
2018-05-13T10:44:44.998Z,29.28
2018-05-13T10:45:45.061Z,28.68
2018-05-13T10:46:45.123Z,28.61
2018-05-13T10:48:45.122Z,28.66
2018-05-13T10:49:45.184Z,28.62
2018-05-13T10:50:45.216Z,28.64
2018-05-13T10:51:45.224Z,28.55
2018-05-13T10:52:59.670Z,28.56
2018-05-13T10:53:45.289Z,28.51
2018-05-13T10:56:45.385Z,28.46
2018-05-13T10:57:45.548Z,28.41
2018-05-13T10:58:45.208Z,28.39
2018-05-13T10:59:45.462Z,28.25
2018-05-13T11:00:45.273Z,28.29
2018-05-13T11:01:45.275Z,28.49
2018-05-13T11:02:45.574Z,28.59
2018-05-13T11:04:00.260Z,28.54
2018-05-13T11:04:45.801Z,28.4
2018-05-13T11:05:45.683Z,28.34
2018-05-13T11:06:45.414Z,28.46
2018-05-13T11:08:00.383Z,28.22
2018-05-13T11:08:45.477Z,28.29
2018-05-13T11:11:45.855Z,28.29
2018-05-13T11:12:45.600Z,28.49
2018-05-13T11:13:45.914Z,28.52
2018-05-13T11:14:45.919Z,28.36
2018-05-13T11:16:00.609Z,28.51
2018-05-13T11:16:45.728Z,28.64
2018-05-13T11:18:00.682Z,28.67
2018-05-13T11:18:45.799Z,28.74
2018-05-13T11:19:46.059Z,28.59
2018-05-13T11:20:46.325Z,28.3
2018-05-13T11:21:46.128Z,28.34
2018-05-13T11:22:46.169Z,28.36
2018-05-13T11:23:45.954Z,28.21
2018-05-13T11:24:46.240Z,28.12
2018-05-13T11:25:46.011Z,28.17
2018-05-13T11:26:46.423Z,28.22
2018-05-13T11:27:46.312Z,28.11
2018-05-13T11:28:46.331Z,28.24
2018-05-13T11:29:46.398Z,28.24
2018-05-13T11:30:46.126Z,28.4
2018-05-13T11:31:46.446Z,28.34
2018-05-13T11:32:46.465Z,28.31
2018-05-13T11:33:46.702Z,28.58
2018-05-13T11:34:46.505Z,28.51
2018-05-13T11:35:46.563Z,28.33
2018-05-13T11:36:46.601Z,28.3
2018-05-13T11:37:46.590Z,28.54
2018-05-13T11:38:46.623Z,28.52
2018-05-13T11:40:01.337Z,28.39
2018-05-13T11:40:46.687Z,28.33
2018-05-13T11:41:46.479Z,28.36
2018-05-13T11:42:46.743Z,28.21
2018-05-13T11:44:46.804Z,28.02
2018-05-13T11:45:46.582Z,28.24
2018-05-13T11:46:46.928Z,28.39
2018-05-13T11:47:46.913Z,28.41
2018-05-13T11:49:01.593Z,28.56
2018-05-13T11:49:46.686Z,28.33
2018-05-13T11:50:47.000Z,28.24
2018-05-13T11:51:46.738Z,28.15
2018-05-13T11:52:47.053Z,28.15
2018-05-13T11:53:46.540Z,28.14
2018-05-13T11:54:47.116Z,28.18
2018-05-13T11:56:01.795Z,28.19
2018-05-13T11:56:47.149Z,28.17
2018-05-13T11:58:01.585Z,28.14
2018-05-13T11:59:47.249Z,28.09
2018-05-13T12:00:47.004Z,28.15
2018-05-13T12:01:47.325Z,28.07
2018-05-13T12:03:01.981Z,28.12
2018-05-13T12:04:02.028Z,28
2018-05-13T12:04:47.121Z,27.94
2018-05-13T12:05:46.909Z,27.9
2018-05-13T12:06:47.447Z,27.72
2018-05-13T12:07:47.494Z,27.81
2018-05-13T12:08:47.491Z,27.99
2018-05-13T12:09:47.523Z,28.17
2018-05-13T12:10:47.049Z,28.25
2018-05-13T12:12:02.251Z,28.52
2018-05-13T12:12:47.647Z,28.48
2018-05-13T12:13:47.641Z,28.11
2018-05-13T12:14:47.431Z,28.14
2018-05-13T12:16:02.357Z,28.11
2018-05-13T12:16:47.467Z,28.02
2018-05-13T12:17:47.241Z,28.09
2018-05-13T12:18:47.547Z,28.09
2018-05-13T12:19:47.838Z,28.19
2018-05-13T12:20:47.842Z,28.18
2018-05-13T12:21:47.894Z,28.43
2018-05-13T12:22:47.894Z,28.37
2018-05-13T12:23:47.689Z,28.3
2018-05-13T12:24:47.697Z,28.15
2018-05-13T12:25:47.763Z,28.09
2018-05-13T12:26:48.019Z,28.18
2018-05-13T12:28:02.717Z,28.17
2018-05-13T12:28:48.068Z,28.15
2018-05-13T12:29:48.122Z,27.94
2018-05-13T12:30:47.882Z,27.7
2018-05-13T12:31:48.157Z,27.66
2018-05-13T12:32:48.182Z,27.85
2018-05-13T12:34:02.892Z,27.66
2018-05-13T12:34:47.981Z,27.77
2018-05-13T12:35:48.040Z,27.77
2018-05-13T12:36:47.778Z,27.67
2018-05-13T12:37:48.096Z,27.63
2018-05-13T12:38:48.097Z,27.66
2018-05-13T12:39:48.406Z,27.77
2018-05-13T12:40:48.408Z,27.77
2018-05-13T12:41:48.470Z,27.82
2018-05-13T12:43:03.147Z,27.67
2018-05-13T12:43:48.505Z,27.69
2018-05-13T12:44:48.275Z,27.69
2018-05-13T12:46:48.613Z,27.97
2018-05-13T12:47:48.611Z,28.09
2018-05-13T12:49:48.693Z,28.04
2018-05-13T12:50:48.454Z,28.17
2018-05-13T12:51:48.723Z,28.14
2018-05-13T12:52:48.752Z,28
2018-05-13T12:53:48.823Z,27.87
2018-05-13T12:54:48.827Z,27.84
2018-05-13T12:55:48.837Z,27.77
2018-05-13T12:56:48.898Z,27.75
2018-05-13T12:57:48.903Z,27.51
2018-05-13T12:58:48.694Z,27.62
2018-05-13T12:59:48.691Z,27.81
2018-05-13T13:00:48.747Z,27.81
2018-05-13T13:01:49.021Z,27.92
2018-05-13T13:02:49.133Z,27.85
2018-05-13T13:03:49.366Z,27.74
2018-05-13T13:04:49.164Z,27.7
2018-05-13T13:05:49.172Z,27.78
2018-05-13T13:06:49.168Z,27.65
2018-05-13T13:07:49.601Z,27.94
2018-05-13T13:08:49.212Z,27.87
2018-05-13T13:09:49.002Z,27.97
2018-05-13T13:10:49.009Z,27.92
2018-05-13T13:11:49.064Z,28.09
2018-05-13T13:12:49.072Z,28.02
2018-05-13T13:13:49.381Z,27.99
2018-05-13T13:15:04.092Z,27.85
2018-05-13T13:15:49.483Z,27.85
2018-05-13T13:17:03.849Z,27.65
2018-05-13T13:18:49.520Z,27.75
2018-05-13T13:19:49.531Z,27.69
2018-05-13T13:20:49.661Z,27.5
2018-05-13T13:22:04.287Z,27.65
2018-05-13T13:22:49.635Z,27.63
2018-05-13T13:23:49.379Z,27.57
2018-05-13T13:24:49.687Z,27.66
2018-05-13T13:25:49.712Z,27.74
2018-05-13T13:26:49.754Z,27.82
2018-05-13T13:27:49.485Z,27.94
2018-05-13T13:28:49.824Z,27.93
2018-05-13T13:29:49.815Z,27.9
2018-05-13T13:31:04.246Z,27.9
2018-05-13T13:31:49.598Z,27.75
2018-05-13T13:32:49.631Z,27.77
2018-05-13T13:33:49.417Z,27.66
2018-05-13T13:34:49.967Z,27.79
2018-05-13T13:35:49.740Z,27.7
2018-05-13T13:36:49.743Z,27.63
2018-05-13T13:37:50.056Z,27.55
2018-05-13T13:38:50.081Z,27.55
2018-05-13T13:39:49.844Z,27.49
2018-05-13T13:40:50.124Z,27.77
2018-05-13T13:41:50.173Z,27.72
2018-05-13T13:42:50.200Z,27.66
2018-05-13T13:43:49.684Z,27.66
2018-05-13T13:44:50.238Z,27.7
2018-05-13T13:45:50.254Z,27.55
2018-05-13T13:47:04.967Z,27.54